TUI156 VECC-VQPR
Flight info
| Callsign | TUI156 |
|---|---|
| Flight time | 0h 47m |
| Altitude | 33000 |
| Route | AGODA2E AGODA R472 RAJ R598 BOGOP BOGOP1A |
| Aircraft | B738/M-SDE2E3FGHIRWXY/LB1 |
Departure
| Time | 2026-05-04 15:01 |
|---|---|
| Airport | Netaji Subhash Chandra Bose International Airport (VECC) |
Arrival
| Time | 2026-05-04 15:48 |
|---|---|
| Airport | Paro International Airport (VQPR) |
| Time | Latitude | Longitude | Altitude | Speed | Heading |
|---|---|---|---|---|---|
| 2026-05-04 14:08 | 22.64457 | 88.44093 | 23 ft | 0 kts | 273° |
| 2026-05-04 14:33 | 22.64456 | 88.44102 | 28 ft | 3 kts | 273° |
| 2026-05-04 14:33 | 22.64455 | 88.44122 | 25 ft | 3 kts | 273° |
| 2026-05-04 14:34 | 22.64456 | 88.44142 | 28 ft | 3 kts | 230° |
| 2026-05-04 14:34 | 22.64470 | 88.44151 | 27 ft | 1 kts | 182° |
| 2026-05-04 14:54 | 22.64452 | 88.44155 | 26 ft | 6 kts | 164° |
| 2026-05-04 14:54 | 22.64393 | 88.44160 | 26 ft | 12 kts | 184° |
| 2026-05-04 14:54 | 22.64333 | 88.44213 | 23 ft | 14 kts | 98° |
| 2026-05-04 14:54 | 22.64287 | 88.44308 | 24 ft | 16 kts | 165° |
| 2026-05-04 14:55 | 22.64238 | 88.44309 | 23 ft | 3 kts | 189° |
| 2026-05-04 14:55 | 22.64197 | 88.44307 | 23 ft | 9 kts | 165° |
| 2026-05-04 14:55 | 22.64165 | 88.44364 | 23 ft | 10 kts | 71° |
| 2026-05-04 14:55 | 22.64203 | 88.44425 | 24 ft | 10 kts | 56° |
| 2026-05-04 14:56 | 22.64233 | 88.44489 | 28 ft | 9 kts | 66° |
| 2026-05-04 14:56 | 22.64242 | 88.44512 | 26 ft | 0 kts | 68° |
| 2026-05-04 14:58 | 22.64246 | 88.44525 | 26 ft | 6 kts | 68° |
| 2026-05-04 14:58 | 22.64265 | 88.44575 | 27 ft | 8 kts | 68° |
| 2026-05-04 14:59 | 22.64299 | 88.44632 | 24 ft | 10 kts | 33° |
| 2026-05-04 14:59 | 22.64316 | 88.44639 | 24 ft | 0 kts | 13° |
| 2026-05-04 15:00 | 22.64317 | 88.44640 | 24 ft | 1 kts | 13° |
| 2026-05-04 15:00 | 22.64457 | 88.44660 | 23 ft | 51 kts | 6° |
| 2026-05-04 15:01 | 22.66344 | 88.44872 | 464 ft | 191 kts | 2° |
| 2026-05-04 15:01 | 22.67702 | 88.44944 | 1682 ft | 187 kts | 5° |
| 2026-05-04 15:01 | 22.69015 | 88.45069 | 2935 ft | 198 kts | 6° |
| 2026-05-04 15:01 | 22.70499 | 88.45229 | 3509 ft | 232 kts | 6° |
| 2026-05-04 15:02 | 22.72192 | 88.45406 | 4042 ft | 252 kts | 5° |
| 2026-05-04 15:02 | 22.73975 | 88.45588 | 4619 ft | 266 kts | 5° |
| 2026-05-04 15:02 | 22.75899 | 88.45779 | 5183 ft | 281 kts | 5° |
| 2026-05-04 15:02 | 22.77830 | 88.45966 | 6179 ft | 282 kts | 5° |
| 2026-05-04 15:03 | 22.79777 | 88.46152 | 7173 ft | 281 kts | 4° |
| 2026-05-04 15:03 | 22.81743 | 88.46338 | 8045 ft | 285 kts | 4° |
| 2026-05-04 15:03 | 22.83732 | 88.46523 | 8966 ft | 288 kts | 3° |
| 2026-05-04 15:03 | 22.85737 | 88.46709 | 9918 ft | 289 kts | 2° |
| 2026-05-04 15:04 | 22.87783 | 88.46896 | 10539 ft | 304 kts | 2° |
| 2026-05-04 15:04 | 22.89990 | 88.47096 | 10728 ft | 332 kts | 3° |
| 2026-05-04 15:04 | 22.92342 | 88.47308 | 11010 ft | 353 kts | 2° |
| 2026-05-04 15:04 | 22.94816 | 88.47530 | 11683 ft | 359 kts | 3° |
| 2026-05-04 15:05 | 22.97313 | 88.47761 | 12424 ft | 362 kts | 3° |
| 2026-05-04 15:05 | 22.99847 | 88.47996 | 13160 ft | 367 kts | 3° |
| 2026-05-04 15:05 | 23.02410 | 88.48233 | 13862 ft | 372 kts | 3° |
| 2026-05-04 15:05 | 23.05008 | 88.48472 | 14485 ft | 376 kts | 3° |
| 2026-05-04 15:06 | 23.07639 | 88.48714 | 15101 ft | 381 kts | 3° |
| 2026-05-04 15:06 | 23.10300 | 88.48957 | 15736 ft | 386 kts | 3° |
| 2026-05-04 15:06 | 23.12963 | 88.49201 | 16351 ft | 390 kts | 3° |
| 2026-05-04 15:07 | 23.18446 | 88.49703 | 17533 ft | 400 kts | 3° |
| 2026-05-04 15:07 | 23.21241 | 88.49959 | 18099 ft | 405 kts | 3° |
| 2026-05-04 15:07 | 23.24063 | 88.50218 | 18604 ft | 409 kts | 3° |
| 2026-05-04 15:07 | 23.26913 | 88.50479 | 19160 ft | 411 kts | 3° |
| 2026-05-04 15:08 | 23.29776 | 88.50742 | 19711 ft | 414 kts | 3° |
| 2026-05-04 15:08 | 23.32654 | 88.51006 | 20230 ft | 417 kts | 3° |
| 2026-05-04 15:08 | 23.35560 | 88.51273 | 20731 ft | 420 kts | 3° |
| 2026-05-04 15:08 | 23.38486 | 88.51541 | 21235 ft | 423 kts | 3° |
| 2026-05-04 15:09 | 23.41392 | 88.51808 | 21712 ft | 426 kts | 2° |
| 2026-05-04 15:09 | 23.44352 | 88.52080 | 22194 ft | 428 kts | 2° |
| 2026-05-04 15:09 | 23.47331 | 88.52354 | 22661 ft | 431 kts | 2° |
| 2026-05-04 15:10 | 23.53353 | 88.52907 | 23534 ft | 437 kts | 2° |
| 2026-05-04 15:10 | 23.56405 | 88.53188 | 23883 ft | 440 kts | 2° |
| 2026-05-04 15:10 | 23.62519 | 88.53751 | 24562 ft | 446 kts | 2° |
| 2026-05-04 15:11 | 23.65618 | 88.54037 | 24903 ft | 448 kts | 2° |
| 2026-05-04 15:11 | 23.68738 | 88.54324 | 25264 ft | 450 kts | 2° |
| 2026-05-04 15:11 | 23.71875 | 88.54614 | 25610 ft | 453 kts | 2° |
| 2026-05-04 15:11 | 23.75021 | 88.54904 | 25942 ft | 456 kts | 1° |
| 2026-05-04 15:12 | 23.78198 | 88.55197 | 26243 ft | 459 kts | 1° |
| 2026-05-04 15:12 | 23.81398 | 88.55493 | 26548 ft | 462 kts | 1° |
| 2026-05-04 15:12 | 23.84613 | 88.55790 | 26885 ft | 464 kts | 1° |
| 2026-05-04 15:12 | 23.87801 | 88.56085 | 27202 ft | 467 kts | 1° |
| 2026-05-04 15:13 | 23.91053 | 88.56385 | 27501 ft | 470 kts | 1° |
| 2026-05-04 15:13 | 23.94321 | 88.56688 | 27796 ft | 473 kts | 1° |
| 2026-05-04 15:13 | 23.97621 | 88.56993 | 28092 ft | 475 kts | 1° |
| 2026-05-04 15:13 | 24.00927 | 88.57300 | 28387 ft | 477 kts | 1° |
| 2026-05-04 15:14 | 24.04243 | 88.57607 | 28671 ft | 480 kts | 1° |
| 2026-05-04 15:14 | 24.07579 | 88.57916 | 28968 ft | 482 kts | 0° |
| 2026-05-04 15:14 | 24.10940 | 88.58228 | 29242 ft | 485 kts | 0° |
| 2026-05-04 15:14 | 24.14271 | 88.58537 | 29509 ft | 487 kts | 0° |
| 2026-05-04 15:15 | 24.17655 | 88.58851 | 29779 ft | 489 kts | 0° |
| 2026-05-04 15:15 | 24.21056 | 88.59167 | 30094 ft | 489 kts | 0° |
| 2026-05-04 15:15 | 24.24443 | 88.59482 | 30446 ft | 488 kts | 0° |
| 2026-05-04 15:16 | 24.31203 | 88.60111 | 31157 ft | 486 kts | 0° |
| 2026-05-04 15:16 | 24.34576 | 88.60444 | 31471 ft | 487 kts | 1° |
| 2026-05-04 15:16 | 24.41331 | 88.61212 | 32135 ft | 487 kts | 1° |
| 2026-05-04 15:17 | 24.44701 | 88.61624 | 32467 ft | 488 kts | 3° |
| 2026-05-04 15:17 | 24.51412 | 88.62991 | 32937 ft | 494 kts | 7° |
| 2026-05-04 15:17 | 24.54742 | 88.63782 | 32924 ft | 496 kts | 7° |
| 2026-05-04 15:18 | 24.61481 | 88.65383 | 32914 ft | 491 kts | 7° |
| 2026-05-04 15:19 | 24.71493 | 88.67646 | 32945 ft | 490 kts | 6° |
| 2026-05-04 15:19 | 24.81553 | 88.69876 | 32931 ft | 492 kts | 6° |
| 2026-05-04 15:20 | 24.88239 | 88.71365 | 32929 ft | 492 kts | 6° |
| 2026-05-04 15:20 | 24.94964 | 88.72867 | 32937 ft | 493 kts | 6° |
| 2026-05-04 15:21 | 25.01697 | 88.74371 | 32948 ft | 493 kts | 6° |
| 2026-05-04 15:22 | 25.11800 | 88.76631 | 32930 ft | 493 kts | 6° |
| 2026-05-04 15:22 | 25.21849 | 88.78881 | 32937 ft | 492 kts | 6° |
| 2026-05-04 15:23 | 25.28576 | 88.80349 | 32940 ft | 491 kts | 6° |
| 2026-05-04 15:23 | 25.35292 | 88.81807 | 32942 ft | 491 kts | 6° |
| 2026-05-04 15:24 | 25.48648 | 88.84755 | 32940 ft | 490 kts | 6° |
| 2026-05-04 15:25 | 25.55341 | 88.86237 | 32946 ft | 490 kts | 6° |
| 2026-05-04 15:26 | 25.64245 | 88.88206 | 32956 ft | 490 kts | 6° |
| 2026-05-04 15:26 | 25.74228 | 88.90761 | 32931 ft | 497 kts | 17° |
| 2026-05-04 15:27 | 25.82885 | 88.97286 | 32951 ft | 510 kts | 40° |
| 2026-05-04 15:28 | 25.90548 | 89.05428 | 32938 ft | 509 kts | 40° |
| 2026-05-04 15:29 | 25.98340 | 89.13466 | 32948 ft | 509 kts | 39° |
| 2026-05-04 15:30 | 26.16288 | 89.31231 | 31540 ft | 508 kts | 37° |
| 2026-05-04 15:31 | 26.21684 | 89.36283 | 30364 ft | 501 kts | 32° |
| 2026-05-04 15:31 | 26.24614 | 89.38350 | 29635 ft | 495 kts | 23° |
| 2026-05-04 15:32 | 26.33487 | 89.43642 | 28292 ft | 481 kts | 40° |
| 2026-05-04 15:32 | 26.37253 | 89.49695 | 27074 ft | 482 kts | 54° |
| 2026-05-04 15:33 | 26.42360 | 89.54044 | 26043 ft | 456 kts | 19° |
| 2026-05-04 15:34 | 26.50665 | 89.59061 | 24472 ft | 451 kts | 28° |
| 2026-05-04 15:34 | 26.53324 | 89.60913 | 23950 ft | 448 kts | 29° |
| 2026-05-04 15:34 | 26.58594 | 89.64573 | 22810 ft | 442 kts | 28° |
| 2026-05-04 15:35 | 26.63791 | 89.68132 | 21781 ft | 433 kts | 28° |
| 2026-05-04 15:35 | 26.66352 | 89.69881 | 21278 ft | 429 kts | 28° |
| 2026-05-04 15:35 | 26.68893 | 89.71616 | 20782 ft | 424 kts | 27° |
| 2026-05-04 15:36 | 26.74360 | 89.73085 | 19848 ft | 397 kts | 351° |
| 2026-05-04 15:36 | 26.77024 | 89.72503 | 19391 ft | 385 kts | 336° |
| 2026-05-04 15:36 | 26.79421 | 89.71246 | 18955 ft | 377 kts | 328° |
| 2026-05-04 15:37 | 26.81711 | 89.69829 | 18622 ft | 371 kts | 327° |
| 2026-05-04 15:37 | 26.83945 | 89.68455 | 18415 ft | 362 kts | 328° |
| 2026-05-04 15:37 | 26.86097 | 89.67137 | 18265 ft | 351 kts | 325° |
| 2026-05-04 15:37 | 26.87915 | 89.65430 | 18110 ft | 335 kts | 309° |
| 2026-05-04 15:38 | 26.89441 | 89.63515 | 17960 ft | 325 kts | 309° |
| 2026-05-04 15:38 | 26.90933 | 89.61661 | 17840 ft | 316 kts | 309° |
| 2026-05-04 15:38 | 26.92397 | 89.59862 | 17669 ft | 307 kts | 310° |
| 2026-05-04 15:38 | 26.93820 | 89.58135 | 17573 ft | 296 kts | 310° |
| 2026-05-04 15:39 | 26.95206 | 89.56455 | 17427 ft | 289 kts | 310° |
| 2026-05-04 15:39 | 26.96688 | 89.54976 | 17273 ft | 286 kts | 328° |
| 2026-05-04 15:39 | 27.00449 | 89.53926 | 17101 ft | 277 kts | 351° |
| 2026-05-04 15:40 | 27.02350 | 89.53748 | 16979 ft | 270 kts | 351° |
| 2026-05-04 15:40 | 27.04196 | 89.53570 | 16841 ft | 264 kts | 351° |
| 2026-05-04 15:40 | 27.06026 | 89.53368 | 16591 ft | 265 kts | 351° |
| 2026-05-04 15:40 | 27.07865 | 89.53159 | 16364 ft | 266 kts | 351° |
| 2026-05-04 15:41 | 27.09709 | 89.52944 | 16121 ft | 266 kts | 351° |
| 2026-05-04 15:41 | 27.11581 | 89.52729 | 15743 ft | 274 kts | 352° |
| 2026-05-04 15:41 | 27.13519 | 89.52509 | 15325 ft | 285 kts | 351° |
| 2026-05-04 15:41 | 27.15495 | 89.52273 | 14881 ft | 294 kts | 352° |
| 2026-05-04 15:42 | 27.17557 | 89.52026 | 14427 ft | 302 kts | 353° |
| 2026-05-04 15:42 | 27.19679 | 89.51773 | 13916 ft | 311 kts | 353° |
| 2026-05-04 15:42 | 27.21847 | 89.51555 | 13396 ft | 315 kts | 357° |
| 2026-05-04 15:42 | 27.24031 | 89.51760 | 13044 ft | 314 kts | 13° |
| 2026-05-04 15:43 | 27.26066 | 89.52482 | 12853 ft | 301 kts | 18° |
| 2026-05-04 15:43 | 27.27936 | 89.53396 | 12725 ft | 284 kts | 28° |
| 2026-05-04 15:43 | 27.29567 | 89.54536 | 12596 ft | 268 kts | 34° |
| 2026-05-04 15:43 | 27.31199 | 89.55402 | 12481 ft | 249 kts | 24° |
| 2026-05-04 15:44 | 27.32648 | 89.56276 | 12336 ft | 230 kts | 30° |
| 2026-05-04 15:44 | 27.34049 | 89.57026 | 12061 ft | 216 kts | 7° |
| 2026-05-04 15:44 | 27.35417 | 89.56719 | 11803 ft | 198 kts | 322° |
| 2026-05-04 15:44 | 27.36116 | 89.55459 | 11278 ft | 192 kts | 271° |
| 2026-05-04 15:45 | 27.35680 | 89.54148 | 11027 ft | 186 kts | 219° |
| 2026-05-04 15:45 | 27.33896 | 89.52849 | 11803 ft | 398 kts | 211° |
| 2026-05-04 15:45 | 27.31624 | 89.51254 | 11981 ft | 374 kts | 212° |
| 2026-05-04 15:45 | 27.29369 | 89.49965 | 11921 ft | 358 kts | 202° |
| 2026-05-04 15:46 | 27.26946 | 89.49293 | 11053 ft | 367 kts | 182° |
| 2026-05-04 15:46 | 27.24326 | 89.49535 | 10026 ft | 383 kts | 171° |
| 2026-05-04 15:46 | 27.22681 | 89.49897 | 9655 ft | 382 kts | 168° |
| 2026-05-04 15:46 | 27.22593 | 89.49919 | 9635 ft | 9 kts | 321° |
| 2026-05-04 15:47 | 27.24007 | 89.48169 | 9643 ft | 19 kts | 84° |
| 2026-05-04 15:47 | 27.23917 | 89.49947 | 9640 ft | 1570 kts | 92° |
| 2026-05-04 15:47 | 27.25583 | 89.53358 | 9641 ft | 1086 kts | 50° |
| 2026-05-04 15:47 | 27.30762 | 89.54104 | 9656 ft | 0 kts | 328° |
| 2026-05-04 15:48 | 27.32897 | 89.49000 | 9674 ft | 935 kts | 301° |
| 2026-05-04 15:48 | 27.34588 | 89.47439 | 8557 ft | 2 kts | 325° |
| 2026-05-04 15:48 | 27.39294 | 89.43144 | 7664 ft | 0 kts | 332° |
| 2026-05-04 15:49 | 27.40347 | 89.42479 | 7353 ft | 0 kts | 329° |
| 2026-05-04 15:49 | 27.40663 | 89.42213 | 7336 ft | 135 kts | 303° |
| 2026-05-04 15:49 | 27.40347 | 89.42479 | 7328 ft | 0 kts | 329° |